createdAt,value
2022-12-08T00:00:16.272Z,79.5
2022-12-08T00:01:16.369Z,79.5
2022-12-08T00:02:16.445Z,79.5
2022-12-08T00:03:16.435Z,79.5
2022-12-08T00:04:16.301Z,79.5
2022-12-08T00:05:16.345Z,79.5
2022-12-08T00:06:16.306Z,79.5
2022-12-08T00:07:16.283Z,79.5
2022-12-08T00:08:16.371Z,79.5
2022-12-08T00:09:16.357Z,79.5
2022-12-08T00:10:47.156Z,79.5
2022-12-08T00:11:16.372Z,79.5
2022-12-08T00:12:16.287Z,79.5
2022-12-08T00:13:16.286Z,79.5
2022-12-08T00:14:16.302Z,79.5
2022-12-08T00:15:16.299Z,79.5
2022-12-08T00:16:16.343Z,79.5
2022-12-08T00:17:16.328Z,79.5
2022-12-08T00:18:16.313Z,79.5
2022-12-08T00:19:16.276Z,79.5
2022-12-08T00:20:16.338Z,79.5
2022-12-08T00:21:16.353Z,79.5
2022-12-08T00:22:16.356Z,79.5
2022-12-08T00:23:16.329Z,79.5
2022-12-08T00:24:16.350Z,79.5
2022-12-08T00:25:16.310Z,79.5
2022-12-08T00:26:16.293Z,79.5
2022-12-08T00:27:16.344Z,79.5
2022-12-08T00:28:16.297Z,79.5
2022-12-08T00:29:17.659Z,79.5
2022-12-08T00:30:16.330Z,79.5
2022-12-08T00:31:16.374Z,79.5
2022-12-08T00:32:16.428Z,79.5
2022-12-08T00:33:16.309Z,79.5
2022-12-08T00:34:16.440Z,79.5
2022-12-08T00:35:16.407Z,79.5
2022-12-08T00:36:16.357Z,79.6
2022-12-08T00:37:16.313Z,79.6
2022-12-08T00:38:16.319Z,79.6
2022-12-08T00:39:16.316Z,79.6
2022-12-08T00:40:16.355Z,79.6
2022-12-08T00:41:16.318Z,79.6
2022-12-08T00:42:16.354Z,79.6
2022-12-08T00:43:16.318Z,79.6
2022-12-08T00:44:16.320Z,79.6
2022-12-08T00:45:16.357Z,79.6
2022-12-08T00:46:16.423Z,79.6
2022-12-08T00:47:19.735Z,79.6
2022-12-08T00:48:16.323Z,79.6
2022-12-08T00:49:16.325Z,79.6
2022-12-08T00:50:16.326Z,79.6
2022-12-08T00:51:16.351Z,79.6
2022-12-08T00:52:16.298Z,79.6
2022-12-08T00:53:16.372Z,79.6
2022-12-08T00:54:16.320Z,79.6
2022-12-08T00:55:16.373Z,79.6
2022-12-08T00:56:16.308Z,79.6
2022-12-08T00:57:16.326Z,79.6
2022-12-08T00:58:16.310Z,79.6
2022-12-08T00:59:16.325Z,79.6
2022-12-08T01:00:16.401Z,79.6
2022-12-08T01:01:16.358Z,79.6
2022-12-08T01:02:16.350Z,79.6
2022-12-08T01:03:16.439Z,79.6
2022-12-08T01:04:16.330Z,79.6
2022-12-08T01:05:16.374Z,79.6
2022-12-08T01:06:16.311Z,79.6
2022-12-08T01:07:16.334Z,79.6
2022-12-08T01:08:16.446Z,79.6
2022-12-08T01:09:16.327Z,79.6
2022-12-08T01:10:16.336Z,79.6
2022-12-08T01:11:16.325Z,79.6
2022-12-08T01:12:16.318Z,79.6
2022-12-08T01:13:16.332Z,79.6
2022-12-08T01:14:16.333Z,79.6
2022-12-08T01:15:16.365Z,79.6
2022-12-08T01:16:16.369Z,79.6
2022-12-08T01:17:16.314Z,79.6
2022-12-08T01:18:16.320Z,79.6
2022-12-08T01:19:16.317Z,79.6
2022-12-08T01:20:16.370Z,79.6
2022-12-08T01:21:16.378Z,79.6
2022-12-08T01:22:16.317Z,79.6
2022-12-08T01:23:16.320Z,79.6
2022-12-08T01:24:16.376Z,79.6
2022-12-08T01:25:16.363Z,79.6
2022-12-08T01:26:16.359Z,79.6
2022-12-08T01:27:16.316Z,79.6
2022-12-08T01:28:16.361Z,79.6
2022-12-08T01:29:16.371Z,79.6
2022-12-08T01:30:16.390Z,79.6
2022-12-08T01:31:16.409Z,79.6
2022-12-08T01:32:16.386Z,79.3
2022-12-08T01:33:16.326Z,79.3
2022-12-08T01:34:16.348Z,79.3
2022-12-08T01:35:16.349Z,79.3
2022-12-08T01:36:16.343Z,79.3
2022-12-08T01:37:16.371Z,79.3
2022-12-08T01:38:16.477Z,79.3
2022-12-08T01:39:16.347Z,79.3
2022-12-08T01:40:16.374Z,79.3
2022-12-08T01:41:16.344Z,79.3
2022-12-08T01:42:16.348Z,79.3
2022-12-08T01:43:16.402Z,79.3
2022-12-08T01:44:16.331Z,79.3
2022-12-08T01:45:16.368Z,79.3
2022-12-08T01:46:16.531Z,79.3
2022-12-08T01:47:16.352Z,79.3
2022-12-08T01:48:16.444Z,79.3
2022-12-08T01:49:16.399Z,79.3
2022-12-08T01:50:16.359Z,79.3
2022-12-08T01:51:16.386Z,79.3
2022-12-08T01:52:16.366Z,79.3
2022-12-08T01:53:16.346Z,79.3
2022-12-08T01:54:16.344Z,79.3
2022-12-08T01:55:16.371Z,79.3
2022-12-08T01:56:16.377Z,79.3
2022-12-08T01:57:16.347Z,79.3
2022-12-08T01:58:16.343Z,79.3
2022-12-08T01:59:16.367Z,79.3
2022-12-08T02:00:16.408Z,79.3
2022-12-08T02:01:16.423Z,79.3
2022-12-08T02:02:16.486Z,79.3
2022-12-08T02:03:16.371Z,79.3
2022-12-08T02:04:16.437Z,79.3
2022-12-08T02:05:16.383Z,79.3
2022-12-08T02:06:16.410Z,79.3
2022-12-08T02:07:16.389Z,79.3
2022-12-08T02:08:16.578Z,79.3
2022-12-08T02:09:16.390Z,79.3
2022-12-08T02:10:16.352Z,79.3
2022-12-08T02:11:16.371Z,79.3
2022-12-08T02:12:16.457Z,79.3
2022-12-08T02:13:16.374Z,79.3
2022-12-08T02:14:16.405Z,79.3
2022-12-08T02:15:16.465Z,79.7
2022-12-08T02:16:16.506Z,79.7
2022-12-08T02:17:16.427Z,79.7
2022-12-08T02:18:16.428Z,79.7
2022-12-08T02:19:30.833Z,79.7
2022-12-08T02:20:16.404Z,79.7
2022-12-08T02:21:16.401Z,79.7
2022-12-08T02:22:16.377Z,79.7
2022-12-08T02:23:16.418Z,79.7
2022-12-08T02:24:16.372Z,79.7
2022-12-08T02:25:16.396Z,79.7
2022-12-08T02:26:16.388Z,79.7
2022-12-08T02:27:16.419Z,79.9
2022-12-08T02:28:16.384Z,79.9
2022-12-08T02:29:16.374Z,79.9
2022-12-08T02:30:16.477Z,79.9
2022-12-08T02:31:16.460Z,79.9
2022-12-08T02:32:16.460Z,79.9
2022-12-08T02:33:16.470Z,79.9
2022-12-08T02:34:16.395Z,79.9
2022-12-08T02:35:16.384Z,79.9
2022-12-08T02:36:16.447Z,79.9
2022-12-08T02:37:16.404Z,79.9
2022-12-08T02:38:16.465Z,79.9
2022-12-08T02:39:16.394Z,79.9
2022-12-08T02:40:16.434Z,79.9
2022-12-08T02:41:16.446Z,79.6
2022-12-08T02:42:16.398Z,79.6
2022-12-08T02:43:16.396Z,79.6
2022-12-08T02:44:16.431Z,79.6
2022-12-08T02:45:16.451Z,79.6
2022-12-08T02:46:16.491Z,79.6
2022-12-08T02:47:16.434Z,79.6
2022-12-08T02:48:16.453Z,79.6
2022-12-08T02:49:16.395Z,79.6
2022-12-08T02:50:16.423Z,79.6
2022-12-08T02:51:16.564Z,79.6
2022-12-08T02:52:16.493Z,79.6
2022-12-08T02:53:16.555Z,79.6
2022-12-08T02:54:16.423Z,79.6
2022-12-08T02:55:16.436Z,79.6
2022-12-08T02:56:16.438Z,79.6
2022-12-08T02:57:16.453Z,79.6
2022-12-08T02:58:16.474Z,79.6
2022-12-08T02:59:16.458Z,79.6
2022-12-08T03:00:16.428Z,79.6
2022-12-08T03:01:16.471Z,79.6
2022-12-08T03:02:16.503Z,79.6
2022-12-08T03:03:16.501Z,79.6
2022-12-08T03:04:16.435Z,79.6
2022-12-08T03:05:16.445Z,79.6
2022-12-08T03:06:16.462Z,79.6
2022-12-08T03:07:16.411Z,79.6
2022-12-08T03:08:16.477Z,79.6
2022-12-08T03:09:16.417Z,79.6
2022-12-08T03:10:16.419Z,79.6
2022-12-08T03:11:16.490Z,79.6
2022-12-08T03:12:16.415Z,79.6
2022-12-08T03:13:16.452Z,79.6
2022-12-08T03:14:16.426Z,79.6
2022-12-08T03:15:16.423Z,79.6
2022-12-08T03:16:16.537Z,79.6
2022-12-08T03:17:16.497Z,79.6
2022-12-08T03:18:16.458Z,79.6
2022-12-08T03:19:16.447Z,79.6
2022-12-08T03:20:16.450Z,79.6
2022-12-08T03:21:16.429Z,79.6
2022-12-08T03:22:16.457Z,79.6
2022-12-08T03:23:16.485Z,79.1
2022-12-08T03:24:16.446Z,79.1
2022-12-08T03:25:16.464Z,79.1
2022-12-08T03:26:16.460Z,79.1
2022-12-08T03:27:16.442Z,79.1
2022-12-08T03:28:16.446Z,79.1
2022-12-08T03:29:16.462Z,79.1
2022-12-08T03:30:16.455Z,79.1
2022-12-08T03:31:16.480Z,79.1
2022-12-08T03:32:16.436Z,79.1
2022-12-08T03:33:16.467Z,79.1
2022-12-08T03:34:16.451Z,79.1
2022-12-08T03:35:16.518Z,79.1
2022-12-08T03:36:16.536Z,79.1
2022-12-08T03:37:16.471Z,79.1
2022-12-08T03:38:16.462Z,79.1
2022-12-08T03:39:16.618Z,79.1
2022-12-08T03:40:16.477Z,79.1
2022-12-08T03:41:16.524Z,79.1
2022-12-08T03:42:16.465Z,79.1
2022-12-08T03:43:16.447Z,79.1
2022-12-08T03:44:16.473Z,79.1
2022-12-08T03:45:16.479Z,79.1
2022-12-08T03:46:16.516Z,79.1
2022-12-08T03:47:16.527Z,79.1
2022-12-08T03:48:16.486Z,79.1
2022-12-08T03:49:16.499Z,78.9
2022-12-08T03:50:16.504Z,78.9
2022-12-08T03:51:16.504Z,78.9
2022-12-08T03:52:16.480Z,78.9
2022-12-08T03:53:16.462Z,78.9
2022-12-08T03:54:16.478Z,78.9
2022-12-08T03:55:16.499Z,78.9
2022-12-08T03:56:16.486Z,78.9
2022-12-08T03:57:16.464Z,78.9
2022-12-08T03:58:16.461Z,78.9
2022-12-08T03:59:16.463Z,78.9
2022-12-08T04:00:16.525Z,78.9
2022-12-08T04:01:16.495Z,78.9
2022-12-08T04:02:16.541Z,78.9
2022-12-08T04:03:16.664Z,78.9
2022-12-08T04:04:16.467Z,78.9
2022-12-08T04:05:16.471Z,78.9
2022-12-08T04:06:16.619Z,78.9
2022-12-08T04:07:16.507Z,78.9
2022-12-08T04:08:16.562Z,78.9
2022-12-08T04:09:16.497Z,78.9
2022-12-08T04:10:16.514Z,78.9
2022-12-08T04:11:16.536Z,78.9
2022-12-08T04:12:16.519Z,78.9
2022-12-08T04:13:16.495Z,78.7
2022-12-08T04:14:16.509Z,78.7
2022-12-08T04:15:16.518Z,78.7
2022-12-08T04:16:16.659Z,78.7
2022-12-08T04:17:16.534Z,78.7
2022-12-08T04:18:16.519Z,78.7
2022-12-08T04:19:16.604Z,78.7
2022-12-08T04:20:16.516Z,78.7
2022-12-08T04:21:16.534Z,78.7
2022-12-08T04:22:16.510Z,78.7
2022-12-08T04:23:16.509Z,78.7
2022-12-08T04:24:16.519Z,78.7
2022-12-08T04:25:16.538Z,78.7
2022-12-08T04:26:16.534Z,78.7
2022-12-08T04:27:16.555Z,78.7
2022-12-08T04:28:16.513Z,78.7
2022-12-08T04:29:16.534Z,78.7
2022-12-08T04:30:16.550Z,78.7
2022-12-08T04:31:16.572Z,78.7
2022-12-08T04:32:16.560Z,78.7
2022-12-08T04:33:16.526Z,78.7
2022-12-08T04:34:16.525Z,78.7
2022-12-08T04:35:16.529Z,78.7
2022-12-08T04:36:16.532Z,78.7
2022-12-08T04:37:16.520Z,78.7
2022-12-08T04:38:16.561Z,78.7
2022-12-08T04:39:16.500Z,78.7
2022-12-08T04:40:16.532Z,78.7
2022-12-08T04:41:16.549Z,78.7
2022-12-08T04:42:16.540Z,78.7
2022-12-08T04:43:16.527Z,78.7
2022-12-08T04:44:16.527Z,78.7
2022-12-08T04:45:16.564Z,78.7
2022-12-08T04:46:16.654Z,78.7
2022-12-08T04:47:16.619Z,78.7
2022-12-08T04:48:16.561Z,78.7
2022-12-08T04:49:16.562Z,78.7
2022-12-08T04:50:16.631Z,78.7
2022-12-08T04:51:16.565Z,78.7
2022-12-08T04:52:16.547Z,78.7
2022-12-08T04:53:16.547Z,78.7
2022-12-08T04:54:16.559Z,78.7
2022-12-08T04:55:16.562Z,78.7
2022-12-08T04:56:16.681Z,78.7
2022-12-08T04:57:16.534Z,78.7
2022-12-08T04:58:16.556Z,78.7
2022-12-08T04:59:16.585Z,78.7
2022-12-08T05:00:16.567Z,78.7
2022-12-08T05:01:16.600Z,78.7
2022-12-08T05:02:16.733Z,79.2
2022-12-08T05:03:16.536Z,79.2
2022-12-08T05:04:16.561Z,79.2
2022-12-08T05:05:16.567Z,79.2
2022-12-08T05:06:16.610Z,79.2
2022-12-08T05:07:16.551Z,79.4
2022-12-08T05:08:16.647Z,79.4
2022-12-08T05:09:16.579Z,79.4
2022-12-08T05:10:16.577Z,79.4
2022-12-08T05:11:16.564Z,79.4
2022-12-08T05:12:16.607Z,79.4
2022-12-08T05:13:16.589Z,79.4
2022-12-08T05:14:16.589Z,79.4
2022-12-08T05:15:16.558Z,79.4
2022-12-08T05:16:16.673Z,79.4
2022-12-08T05:17:16.554Z,79.4
2022-12-08T05:18:16.591Z,79.4
2022-12-08T05:19:16.562Z,79.4
2022-12-08T05:20:16.577Z,79.4
2022-12-08T05:21:16.572Z,79.4
2022-12-08T05:22:16.566Z,79.4
2022-12-08T05:23:16.574Z,79.4
2022-12-08T05:24:16.548Z,79.4
2022-12-08T05:25:16.599Z,79.4
2022-12-08T05:26:16.567Z,79.4
2022-12-08T05:27:16.580Z,79.4
2022-12-08T05:28:39.745Z,79.4
2022-12-08T05:29:16.600Z,79.4
2022-12-08T05:30:16.547Z,79.4
2022-12-08T05:31:16.640Z,79.4
2022-12-08T05:32:16.571Z,79.4
2022-12-08T05:33:16.551Z,79.4
2022-12-08T05:34:16.596Z,79.4
2022-12-08T05:35:16.611Z,79.4
2022-12-08T05:36:16.560Z,79.4
2022-12-08T05:37:16.579Z,79.4
2022-12-08T05:38:16.597Z,79.4
2022-12-08T05:39:16.560Z,79.4
2022-12-08T05:40:16.602Z,79.4
2022-12-08T05:41:16.606Z,79.4
2022-12-08T05:42:20.479Z,79.4
2022-12-08T05:43:16.560Z,79.4
2022-12-08T05:44:16.571Z,79.4
2022-12-08T05:45:16.573Z,79.4
2022-12-08T05:46:16.687Z,79.4
2022-12-08T05:47:16.590Z,79.4
2022-12-08T05:48:16.587Z,79.4
2022-12-08T05:49:16.595Z,79.4
2022-12-08T05:50:16.606Z,79.4
2022-12-08T05:51:16.578Z,79.4
2022-12-08T05:52:16.634Z,79.4
2022-12-08T05:53:16.625Z,79.4
2022-12-08T05:54:16.577Z,79.4
2022-12-08T05:55:16.601Z,79.4
2022-12-08T05:56:16.612Z,79.4
2022-12-08T05:57:16.571Z,79.4
2022-12-08T05:58:16.615Z,79.4
2022-12-08T05:59:16.575Z,78.6
2022-12-08T06:00:16.613Z,78.6
2022-12-08T06:01:16.577Z,78.6
2022-12-08T06:02:16.834Z,78.6
2022-12-08T06:03:16.657Z,78.6
2022-12-08T06:04:16.616Z,78.6
2022-12-08T06:05:16.568Z,78.6
2022-12-08T06:06:16.606Z,78.6
2022-12-08T06:07:16.574Z,78.6
2022-12-08T06:08:16.689Z,78.6
2022-12-08T06:09:16.612Z,78.6
2022-12-08T06:10:16.607Z,78.6
2022-12-08T06:11:16.634Z,78.6
2022-12-08T06:12:16.642Z,78.6
2022-12-08T06:13:16.606Z,78.6
2022-12-08T06:14:16.614Z,78.6
2022-12-08T06:15:16.628Z,78.6
2022-12-08T06:16:16.665Z,78.6
2022-12-08T06:17:16.609Z,78.6
2022-12-08T06:18:16.614Z,78.6
2022-12-08T06:19:16.609Z,78.6
2022-12-08T06:20:16.625Z,78.6
2022-12-08T06:21:16.673Z,78.6
2022-12-08T06:22:16.619Z,78.6
2022-12-08T06:23:16.612Z,78.6
2022-12-08T06:24:16.601Z,78.6
2022-12-08T06:25:16.640Z,78.6
2022-12-08T06:26:16.616Z,79.3
2022-12-08T06:27:16.619Z,79.3
2022-12-08T06:28:16.594Z,79.3
2022-12-08T06:29:16.601Z,79.3
2022-12-08T06:30:16.675Z,79.3
2022-12-08T06:31:16.627Z,79.3
2022-12-08T06:32:16.694Z,79.3
2022-12-08T06:33:16.651Z,79.3
2022-12-08T06:34:16.642Z,79.3
2022-12-08T06:35:16.637Z,79.3
2022-12-08T06:36:16.698Z,79.3
2022-12-08T06:37:16.632Z,79.3
2022-12-08T06:38:16.698Z,79.3
2022-12-08T06:39:16.638Z,79.3
2022-12-08T06:40:16.635Z,79.3
2022-12-08T06:41:16.645Z,79.3
2022-12-08T06:42:16.690Z,79.3
2022-12-08T06:43:16.645Z,79.3
2022-12-08T06:44:16.631Z,79.3
2022-12-08T06:45:16.643Z,79.3
2022-12-08T06:46:16.773Z,79.3
2022-12-08T06:47:16.634Z,79.3
2022-12-08T06:48:16.639Z,79.3
2022-12-08T06:49:16.691Z,79.3
2022-12-08T06:50:16.644Z,79.3
2022-12-08T06:51:16.612Z,79.3
2022-12-08T06:52:16.629Z,79.3
2022-12-08T06:53:16.677Z,79.3
2022-12-08T06:54:16.744Z,79.3
2022-12-08T06:55:35.491Z,79.3
2022-12-08T06:56:16.641Z,79.3
2022-12-08T06:57:16.670Z,79.3
2022-12-08T06:58:16.641Z,79.3
2022-12-08T06:59:16.654Z,78.9
2022-12-08T07:00:16.683Z,78.9
2022-12-08T07:01:16.681Z,78.9
2022-12-08T07:02:16.712Z,78.9
2022-12-08T07:03:16.703Z,78.9
2022-12-08T07:04:16.698Z,78.9
2022-12-08T07:05:16.763Z,78.9
2022-12-08T07:06:16.680Z,78.9
2022-12-08T07:07:16.682Z,78.9
2022-12-08T07:08:16.759Z,78.9
2022-12-08T07:09:16.669Z,78.9
2022-12-08T07:10:16.707Z,78.9
2022-12-08T07:11:21.141Z,78.9
2022-12-08T07:12:16.675Z,78.9
2022-12-08T07:13:16.685Z,78.6
2022-12-08T07:14:16.686Z,78.6
2022-12-08T07:15:16.672Z,78.6
2022-12-08T07:16:16.830Z,78.6
2022-12-08T07:17:16.735Z,78.6
2022-12-08T07:18:16.703Z,78.6
2022-12-08T07:19:16.679Z,78.6
2022-12-08T07:20:16.673Z,78.6
2022-12-08T07:21:16.712Z,78.6
2022-12-08T07:22:16.728Z,78.6
2022-12-08T07:23:16.682Z,78.6
2022-12-08T07:24:16.687Z,78.6
2022-12-08T07:25:16.743Z,78.6
2022-12-08T07:26:16.690Z,78.6
2022-12-08T07:27:16.682Z,78.6
2022-12-08T07:28:16.690Z,78.6
2022-12-08T07:29:20.496Z,78.6
2022-12-08T07:30:16.675Z,78.6
2022-12-08T07:31:16.734Z,78.6
2022-12-08T07:32:16.697Z,78.6
2022-12-08T07:33:16.710Z,78.6
2022-12-08T07:34:16.698Z,78.6
2022-12-08T07:35:16.732Z,78.6
2022-12-08T07:36:16.692Z,78.6
2022-12-08T07:37:16.750Z,78.6
2022-12-08T07:38:16.698Z,78.6
2022-12-08T07:39:16.684Z,78.6
2022-12-08T07:40:16.731Z,78.6
2022-12-08T07:41:16.701Z,78.6
2022-12-08T07:42:16.689Z,78.6
2022-12-08T07:43:16.711Z,78.6
2022-12-08T07:44:16.765Z,78.6
2022-12-08T07:45:16.702Z,78.6
2022-12-08T07:46:16.863Z,78.6
2022-12-08T07:47:16.705Z,78.6
2022-12-08T07:48:16.697Z,78.6
2022-12-08T07:49:16.703Z,78.6
2022-12-08T07:50:16.760Z,78.6
2022-12-08T07:51:16.712Z,78.6
2022-12-08T07:52:16.718Z,79.9
2022-12-08T07:53:16.749Z,79.9
2022-12-08T07:54:16.709Z,79.9
2022-12-08T07:55:16.757Z,79.9
2022-12-08T07:56:16.717Z,81.4
2022-12-08T07:57:16.801Z,81.4
2022-12-08T07:58:16.744Z,82
2022-12-08T07:59:16.748Z,82
2022-12-08T08:00:16.798Z,82
2022-12-08T08:01:16.884Z,82
2022-12-08T08:02:23.386Z,82
2022-12-08T08:03:16.788Z,82
2022-12-08T08:04:16.801Z,82
2022-12-08T08:05:16.806Z,82
2022-12-08T08:06:16.727Z,82
2022-12-08T08:07:16.724Z,82
2022-12-08T08:08:16.799Z,82
2022-12-08T08:09:16.739Z,82
2022-12-08T08:10:16.901Z,82
2022-12-08T08:11:21.194Z,82
2022-12-08T08:12:30.674Z,82
2022-12-08T08:13:16.771Z,82
2022-12-08T08:14:16.734Z,82
2022-12-08T08:15:16.730Z,82
2022-12-08T08:16:16.885Z,82
2022-12-08T08:17:16.832Z,82
2022-12-08T08:18:16.788Z,82
2022-12-08T08:19:16.781Z,82
2022-12-08T08:20:16.784Z,82
2022-12-08T08:21:43.984Z,82
2022-12-08T08:22:16.791Z,82
2022-12-08T08:23:16.779Z,82
2022-12-08T08:24:16.744Z,82
2022-12-08T08:25:16.753Z,82
2022-12-08T12:46:03.050Z,72.8
2022-12-08T12:47:02.993Z,72.8
2022-12-08T12:48:03.008Z,72.8
2022-12-08T12:49:03.017Z,72.8
2022-12-08T12:52:03.042Z,72.8
2022-12-08T12:53:03.053Z,72.8
2022-12-08T12:54:03.043Z,72.8
2022-12-08T12:55:03.019Z,72.8
2022-12-08T12:56:03.032Z,72.8
2022-12-08T12:57:03.033Z,72.8
2022-12-08T12:58:03.011Z,72.8
2022-12-08T12:59:03.016Z,72.8
2022-12-08T13:00:03.073Z,72.8
2022-12-08T13:01:03.089Z,72.8
2022-12-08T13:02:03.121Z,72.8
2022-12-08T13:03:03.079Z,72.8
2022-12-08T13:04:03.034Z,72.8
2022-12-08T13:05:03.069Z,72.8
2022-12-08T13:06:03.050Z,72.8
2022-12-08T13:07:03.001Z,72.8
2022-12-08T13:08:03.149Z,72.8
2022-12-08T13:11:03.091Z,72.8
2022-12-08T13:12:03.041Z,72.8
2022-12-08T13:13:03.068Z,72.8
2022-12-08T13:14:03.047Z,72.8
2022-12-08T13:15:03.124Z,72.8
2022-12-08T13:16:12.782Z,72.8
2022-12-08T13:17:03.123Z,72.8
2022-12-08T13:18:03.059Z,72.8
2022-12-08T13:19:03.026Z,72.8
2022-12-08T13:20:03.024Z,72.8
2022-12-08T13:21:03.051Z,72.8
2022-12-08T13:22:03.037Z,72.8
2022-12-08T13:23:03.045Z,72.8
2022-12-08T13:24:03.055Z,72.8
2022-12-08T13:25:03.036Z,72.8
2022-12-08T13:26:03.079Z,72.8
2022-12-08T13:27:03.042Z,72.8
2022-12-08T13:28:03.088Z,72.8
2022-12-08T13:29:03.042Z,72.8
2022-12-08T13:30:03.545Z,72.8
2022-12-08T13:31:03.135Z,72.8
2022-12-08T13:32:03.067Z,72.8
2022-12-08T13:33:17.607Z,72.8
2022-12-08T13:34:03.110Z,72.8
2022-12-08T13:35:03.052Z,72.8
2022-12-08T13:36:03.053Z,72.8
2022-12-08T13:37:03.137Z,72.8
2022-12-08T13:38:03.085Z,72.8
2022-12-08T13:39:03.184Z,72.8
2022-12-08T13:40:03.489Z,72.8
2022-12-08T13:41:03.079Z,72.8
2022-12-08T13:42:03.049Z,72.8
2022-12-08T13:43:03.082Z,72.8
2022-12-08T13:44:56.786Z,72.8
2022-12-08T13:45:22.278Z,72.8
2022-12-08T13:47:32.151Z,72.8
2022-12-08T13:48:27.923Z,72.8
2022-12-08T13:50:49.583Z,72.8
2022-12-08T13:53:41.643Z,72.8
2022-12-08T13:57:10.725Z,72.8
2022-12-08T13:58:03.112Z,72.8
2022-12-08T13:59:03.084Z,72.8
2022-12-08T14:00:03.075Z,72.8
2022-12-08T14:01:03.135Z,72.8
2022-12-08T14:02:03.047Z,72.8
2022-12-08T14:03:03.159Z,72.8
2022-12-08T14:04:37.222Z,72.8
2022-12-08T14:05:20.373Z,72.8
2022-12-08T14:06:12.118Z,72.8
2022-12-08T14:07:03.067Z,72.8
2022-12-08T14:08:03.156Z,72.8
2022-12-08T14:09:10.451Z,72.8
2022-12-08T14:10:03.132Z,72.8
2022-12-08T14:11:03.098Z,72.8
2022-12-08T14:12:03.128Z,72.8
2022-12-08T14:13:03.087Z,72.8
2022-12-08T14:14:03.096Z,72.8
2022-12-08T14:15:04.608Z,72.8
2022-12-08T14:16:03.225Z,72.8
2022-12-08T14:17:03.134Z,72.8
2022-12-08T14:18:03.128Z,72.8
2022-12-08T14:19:03.124Z,72.8
2022-12-08T14:20:03.108Z,72.8
2022-12-08T14:21:20.495Z,72.8
2022-12-08T14:22:03.098Z,72.8
2022-12-08T14:23:03.095Z,72.8
2022-12-08T14:24:03.156Z,72.8
2022-12-08T14:25:03.513Z,72.8
2022-12-08T14:26:03.103Z,72.8
2022-12-08T14:27:03.162Z,72.8
2022-12-08T14:28:03.141Z,72.8
2022-12-08T14:29:03.127Z,72.8
2022-12-08T14:30:03.152Z,72.8
2022-12-08T14:31:03.164Z,72.8
2022-12-08T14:32:03.115Z,72.8
2022-12-08T14:33:03.140Z,72.8
2022-12-08T14:34:03.120Z,72.8
2022-12-08T14:35:03.563Z,72.8
2022-12-08T14:36:03.151Z,72.8
2022-12-08T14:37:03.130Z,72.8
2022-12-08T14:38:03.170Z,72.8
2022-12-08T14:39:03.116Z,72.8
2022-12-08T14:40:03.593Z,72.8
2022-12-08T14:41:03.181Z,72.8
2022-12-08T14:42:03.125Z,72.8
2022-12-08T14:43:03.126Z,72.8
2022-12-08T14:44:03.128Z,72.8
2022-12-08T14:45:03.151Z,72.8
2022-12-08T14:46:03.269Z,72.8
2022-12-08T14:47:05.699Z,72.8
2022-12-08T14:48:03.134Z,72.8
2022-12-08T14:49:03.168Z,72.8
2022-12-08T14:50:03.504Z,72.8
2022-12-08T14:51:03.150Z,72.8
2022-12-08T14:52:03.156Z,72.8
2022-12-08T14:53:03.143Z,72.8
2022-12-08T14:54:03.217Z,72.8
2022-12-08T14:55:03.148Z,72.8
2022-12-08T14:56:03.172Z,72.8
2022-12-08T14:57:03.192Z,72.8
2022-12-08T14:58:03.137Z,72.8
2022-12-08T14:59:03.215Z,72.8
2022-12-08T15:00:03.534Z,72.8
2022-12-08T15:01:03.169Z,72.8
2022-12-08T15:02:03.246Z,72.8
2022-12-08T15:03:03.206Z,72.8
2022-12-08T15:04:03.171Z,72.8
2022-12-08T15:05:03.539Z,72.8
2022-12-08T15:06:03.175Z,72.8
2022-12-08T15:07:03.157Z,72.8
2022-12-08T15:08:03.338Z,72.8
2022-12-08T15:09:03.172Z,72.8
2022-12-08T15:10:03.543Z,72.8
2022-12-08T15:11:03.177Z,72.8
2022-12-08T15:12:03.170Z,72.8
2022-12-08T15:13:03.158Z,72.8
2022-12-08T15:14:03.253Z,72.8
2022-12-08T15:15:03.230Z,72.8
2022-12-08T15:16:03.260Z,72.8
2022-12-08T15:17:03.182Z,72.8
2022-12-08T15:18:03.208Z,72.8
2022-12-08T15:19:03.211Z,72.8
2022-12-08T15:20:03.449Z,72.8
2022-12-08T15:21:03.213Z,72.8
2022-12-08T15:22:03.205Z,72.8
2022-12-08T15:23:03.212Z,72.8
2022-12-08T22:22:03.924Z,90.1
2022-12-08T22:23:04.164Z,90.1
2022-12-08T22:24:04.125Z,90.1
2022-12-08T22:25:03.950Z,90.1
2022-12-08T22:26:04.084Z,90.1
2022-12-08T22:27:03.983Z,90.1
2022-12-08T22:28:03.933Z,90.1
2022-12-08T22:29:04.098Z,90.1
2022-12-08T22:30:04.247Z,90.1
2022-12-08T22:31:04.088Z,90.1
2022-12-08T22:32:04.015Z,90.1
2022-12-08T22:33:03.908Z,90.1
2022-12-08T22:34:03.958Z,90.1
2022-12-08T22:35:03.892Z,90.1
2022-12-08T22:36:10.164Z,90.1
2022-12-08T22:37:03.890Z,90.1
2022-12-08T22:38:03.949Z,90.1
2022-12-08T22:39:04.113Z,90.1
2022-12-08T22:40:04.524Z,90.1
2022-12-08T22:41:03.899Z,90.1
2022-12-08T22:42:03.964Z,90.1
2022-12-08T22:43:03.915Z,90.9
2022-12-08T22:44:03.952Z,90.9
2022-12-08T22:45:04.031Z,90.9
2022-12-08T22:46:07.409Z,90.9
2022-12-08T22:47:03.991Z,90.9
2022-12-08T22:48:03.955Z,90.9
2022-12-08T22:49:03.949Z,91
2022-12-08T22:50:04.553Z,91
2022-12-08T22:51:03.925Z,91
2022-12-08T22:52:04.027Z,91
2022-12-08T22:53:03.913Z,91
2022-12-08T22:54:03.963Z,91
2022-12-08T22:55:03.965Z,91
2022-12-08T22:56:03.898Z,91
2022-12-08T22:57:03.903Z,91
2022-12-08T22:58:03.923Z,91
2022-12-08T22:59:04.046Z,91
2022-12-08T23:00:04.145Z,91
2022-12-08T23:01:03.912Z,91
2022-12-08T23:02:04.131Z,91
2022-12-08T23:03:04.237Z,91
2022-12-08T23:04:04.128Z,91
2022-12-08T23:05:04.401Z,91
2022-12-08T23:07:03.963Z,91
2022-12-08T23:08:04.227Z,91
2022-12-08T23:09:04.003Z,91
2022-12-08T23:10:04.413Z,91
2022-12-08T23:11:03.965Z,91
2022-12-08T23:12:04.139Z,91
2022-12-08T23:13:04.343Z,91
2022-12-08T23:14:03.955Z,91
2022-12-08T23:15:03.988Z,91
2022-12-08T23:16:04.128Z,91
2022-12-08T23:17:04.015Z,91
2022-12-08T23:18:04.291Z,91
2022-12-08T23:19:04.204Z,91
2022-12-08T23:20:04.587Z,91
2022-12-08T23:21:04.049Z,91.1
2022-12-08T23:22:04.061Z,91.1
2022-12-08T23:23:04.168Z,91.1
2022-12-08T23:24:04.085Z,91.1
2022-12-08T23:25:04.353Z,91.1
2022-12-08T23:26:04.054Z,90.9
2022-12-08T23:27:04.083Z,90.9
2022-12-08T23:28:04.030Z,90.9
2022-12-08T23:29:04.033Z,90.9
2022-12-08T23:30:04.636Z,90.9
2022-12-08T23:31:04.021Z,90.9
2022-12-08T23:32:04.179Z,90.9
2022-12-08T23:33:04.290Z,90.9
2022-12-08T23:34:04.089Z,90.9
2022-12-08T23:35:04.322Z,90.9
2022-12-08T23:36:04.046Z,90.9
2022-12-08T23:37:04.001Z,90.9
2022-12-08T23:38:04.239Z,90.9
2022-12-08T23:39:04.184Z,90.9
2022-12-08T23:40:04.552Z,90.9
2022-12-08T23:41:04.320Z,90.9
2022-12-08T23:42:04.133Z,90.9
2022-12-08T23:43:04.042Z,90.9
2022-12-08T23:44:04.092Z,90.9
2022-12-08T23:45:04.318Z,90.9
2022-12-08T23:46:04.117Z,90.7
2022-12-08T23:47:04.246Z,90.7
2022-12-08T23:48:04.159Z,90.7
2022-12-08T23:49:04.114Z,90.7
2022-12-08T23:50:04.680Z,90.7
2022-12-08T23:51:04.115Z,90.7
2022-12-08T23:52:04.071Z,90.7
2022-12-08T23:53:04.272Z,90.7
2022-12-08T23:54:04.075Z,90.7
2022-12-08T23:55:04.275Z,90.7
2022-12-08T23:56:04.204Z,90.7
2022-12-08T23:57:04.116Z,90.7
2022-12-08T23:58:04.257Z,90.7
2022-12-08T23:59:04.215Z,90.7
